Time;durP1;ratioP1;P1;durP2;ratioP2;P2;SDS_P1;SDS_P2;PMS_P1;PMS_P2;Temp;Humidity;BMP_temperature;BMP_pressure;BME280_temperature;BME280_humidity;BME280_pressure;Samples;Min_cycle;Max_cycle;Signal;HPM_P1;HPM_P2
2023/09/03 00:00:41;;;;;;;10.60;7.90;;;;;;;21.36;53.64;101021.20;106920;1257;59381;-84
2023/09/03 00:03:08;;;;;;;11.50;7.50;;;;;;;21.35;52.84;101020.38;106122;1256;64889;-84
2023/09/03 00:05:36;;;;;;;12.20;7.80;;;;;;;21.34;52.35;101019.94;106097;1254;69754;-84
2023/09/03 00:08:04;;;;;;;13.50;7.60;;;;;;;21.31;52.39;101025.98;107101;1254;63681;-84
2023/09/03 00:10:35;;;;;;;10.40;7.40;;;;;;;21.28;52.87;101025.10;106049;1254;60423;-84
2023/09/03 00:13:04;;;;;;;13.10;7.70;;;;;;;21.26;53.20;101025.67;106499;1256;60538;-83
2023/09/03 00:15:31;;;;;;;12.20;8.90;;;;;;;21.25;53.31;101026.02;106544;1254;63638;-83
2023/09/03 00:17:59;;;;;;;11.30;7.50;;;;;;;21.22;53.51;101020.06;106251;1254;61434;-84
2023/09/03 00:20:27;;;;;;;11.80;7.30;;;;;;;21.21;53.69;101019.16;106536;1254;62499;-84
2023/09/03 00:22:54;;;;;;;12.00;7.50;;;;;;;21.18;53.90;101017.13;106784;1256;60550;-85
2023/09/03 00:25:22;;;;;;;11.00;7.00;;;;;;;21.16;54.04;101015.07;106080;1259;60273;-85
2023/09/03 00:27:49;;;;;;;10.60;7.10;;;;;;;21.18;54.32;101010.74;106887;1254;64862;-86
2023/09/03 00:30:16;;;;;;;9.60;6.60;;;;;;;21.22;54.32;101011.56;106242;1254;61383;-87
2023/09/03 00:32:45;;;;;;;10.90;7.20;;;;;;;21.25;54.13;101012.11;106590;1256;63665;-84
2023/09/03 00:35:13;;;;;;;10.70;7.10;;;;;;;21.26;53.71;101010.30;106292;1253;60465;-85
2023/09/03 00:37:40;;;;;;;9.00;6.50;;;;;;;21.28;52.67;101008.63;106183;1254;60354;-83
2023/09/03 00:40:08;;;;;;;8.80;6.20;;;;;;;21.29;52.12;101008.48;106416;1258;65141;-85
2023/09/03 00:42:36;;;;;;;11.40;6.10;;;;;;;21.28;52.02;101002.77;106072;1254;70264;-85
2023/09/03 00:45:03;;;;;;;10.60;7.20;;;;;;;21.29;51.97;100998.72;106051;1259;63785;-85
2023/09/03 00:47:31;;;;;;;9.90;5.80;;;;;;;21.29;52.34;100998.77;106403;1256;60527;-86
2023/09/03 00:49:58;;;;;;;9.70;5.90;;;;;;;21.27;52.91;100998.77;106013;1253;60953;-87
2023/09/03 00:52:26;;;;;;;11.00;6.80;;;;;;;21.24;52.93;100999.33;106263;1254;65134;-86
2023/09/03 00:54:53;;;;;;;8.70;5.70;;;;;;;21.21;53.22;100997.17;107073;1256;60456;-87
2023/09/03 00:57:21;;;;;;;11.60;6.90;;;;;;;21.18;53.52;100994.45;106187;1259;62455;-84
2023/09/03 00:59:49;;;;;;;7.40;5.40;;;;;;;21.17;53.67;100992.82;106567;1254;60391;-84
2023/09/03 01:02:17;;;;;;;10.40;6.00;;;;;;;21.18;54.00;100987.23;106507;1254;60579;-84
2023/09/03 01:04:44;;;;;;;8.20;6.30;;;;;;;21.17;53.90;100984.59;105854;1254;64963;-85
2023/09/03 01:07:13;;;;;;;10.90;6.30;;;;;;;21.18;53.60;100980.48;106273;1256;61891;-85
2023/09/03 01:09:40;;;;;;;10.20;6.60;;;;;;;21.17;53.27;100983.21;105903;1261;62452;-86
2023/09/03 01:12:28;;;;;;;8.50;5.70;;;;;;;21.16;53.14;100984.41;106272;1257;60628;-87
2023/09/03 01:15:14;;;;;;;9.00;5.50;;;;;;;21.12;52.96;100981.29;106025;1254;60559;-87
2023/09/03 01:17:47;;;;;;;;;;;;;;;21.09;53.25;100982.20;106584;1260;64969;-85
2023/09/03 01:20:17;;;;;;;9.50;5.70;;;;;;;21.06;53.19;100983.20;106822;1255;60553;-87
2023/09/03 01:23:12;;;;;;;10.50;6.30;;;;;;;21.04;53.69;100979.70;106264;1254;62526;-86
2023/09/03 01:26:18;;;;;;;8.70;5.60;;;;;;;21.04;54.43;100982.75;106598;1255;60572;-85
2023/09/03 01:28:45;;;;;;;7.90;5.20;;;;;;;21.09;54.21;100988.80;109443;1253;57664;-88
2023/09/03 01:31:15;;;;;;;9.40;6.00;;;;;;;21.13;54.19;100986.98;109429;1254;63863;-87
2023/09/03 01:33:44;;;;;;;9.30;6.40;;;;;;;21.17;54.39;100986.48;109421;1253;60124;-86
2023/09/03 01:36:13;;;;;;;10.90;5.60;;;;;;;21.20;53.85;100986.44;109207;1253;284118;-87
2023/09/03 01:40:12;;;;;;;9.70;5.80;;;;;;;21.11;53.61;100982.42;102413;1294;600630;-59
2023/09/03 01:42:39;;;;;;;9.10;5.50;;;;;;;21.25;52.83;100979.92;104637;1270;59250;-59
2023/09/03 01:45:07;;;;;;;11.30;6.40;;;;;;;21.27;52.86;100979.30;104628;1266;59708;-59
2023/09/03 01:47:53;;;;;;;12.10;6.40;;;;;;;21.28;53.72;100978.03;104620;1269;63504;-60
2023/09/03 01:50:27;;;;;;;11.20;5.90;;;;;;;21.27;53.98;100978.63;104728;1267;60326;-59
2023/09/03 01:53:02;;;;;;;12.00;5.60;;;;;;;21.24;53.92;100978.48;104247;1264;248956;-60
2023/09/03 01:55:31;;;;;;;10.20;6.20;;;;;;;21.20;54.23;100976.04;104545;1264;59118;-60
2023/09/03 01:58:00;;;;;;;9.50;6.20;;;;;;;21.18;54.72;100978.46;104528;1263;59289;-60
2023/09/03 02:00:27;;;;;;;10.70;5.70;;;;;;;21.18;54.72;100977.20;104598;1266;63280;-58
2023/09/03 02:02:55;;;;;;;7.90;5.60;;;;;;;21.21;54.74;100979.01;104638;1264;61943;-59
2023/09/03 02:05:23;;;;;;;8.40;5.40;;;;;;;21.21;54.63;100980.05;104509;1263;62524;-58
2023/09/03 02:07:51;;;;;;;9.60;5.90;;;;;;;21.20;54.23;100973.24;104893;1264;59841;-57
2023/09/03 02:10:19;;;;;;;10.10;5.70;;;;;;;21.19;54.05;100973.21;104568;1264;59715;-57
2023/09/03 02:12:46;;;;;;;8.80;6.00;;;;;;;21.15;54.16;100970.55;104580;1269;64081;-57
2023/09/03 02:15:14;;;;;;;12.20;5.70;;;;;;;21.11;54.30;100966.91;104699;1267;61325;-58
2023/09/03 02:17:42;;;;;;;9.70;6.20;;;;;;;21.07;54.58;100964.70;104875;1267;63736;-58
2023/09/03 02:20:10;;;;;;;8.70;6.30;;;;;;;21.02;54.76;100968.37;105236;1258;59726;-57
2023/09/03 02:22:37;;;;;;;9.10;5.80;;;;;;;20.95;55.10;100971.59;105314;1257;59638;-57
2023/09/03 02:25:06;;;;;;;9.30;6.40;;;;;;;20.90;55.20;100973.09;105264;1261;64131;-61
2023/09/03 02:27:34;;;;;;;9.60;6.70;;;;;;;20.85;55.43;100976.40;105306;1260;60131;-59
2023/09/03 02:30:01;;;;;;;9.60;6.30;;;;;;;20.80;55.33;100979.26;105382;1256;63729;-56
2023/09/03 02:32:29;;;;;;;10.50;6.10;;;;;;;20.75;55.24;100981.73;105302;1254;59775;-58
2023/09/03 02:34:57;;;;;;;11.30;6.90;;;;;;;20.72;55.66;100978.74;105464;1256;59643;-56
2023/09/03 02:37:24;;;;;;;10.60;6.60;;;;;;;20.73;55.58;100975.95;105374;1254;64121;-58
2023/09/03 02:39:52;;;;;;;8.50;6.50;;;;;;;20.76;55.18;100977.59;105282;1257;61889;-65
2023/09/03 02:42:19;;;;;;;10.60;6.60;;;;;;;20.77;54.87;100973.30;105552;1257;63772;-66
2023/09/03 02:44:47;;;;;;;11.10;6.80;;;;;;;20.77;54.50;100970.99;105330;1255;59787;-66
2023/09/03 02:47:14;;;;;;;10.60;6.90;;;;;;;20.77;54.32;100970.09;105642;1260;61487;-63
2023/09/03 02:49:46;;;;;;;9.60;6.90;;;;;;;20.77;54.62;100970.66;105162;1257;64114;-62
2023/09/03 02:52:14;;;;;;;9.90;7.10;;;;;;;20.77;54.82;100967.29;105265;1254;61375;-62
2023/09/03 02:54:43;;;;;;;9.90;7.00;;;;;;;20.76;55.04;100968.83;106025;1259;63742;-63
2023/09/03 02:57:10;;;;;;;9.90;6.80;;;;;;;20.74;55.24;100970.98;105109;1254;59623;-64
2023/09/03 02:59:42;;;;;;;9.70;7.00;;;;;;;20.71;55.46;100973.30;105323;1261;59626;-62
2023/09/03 03:02:09;;;;;;;9.60;7.10;;;;;;;20.68;55.44;100975.25;105146;1254;62898;-62
2023/09/03 03:04:37;;;;;;;8.90;6.80;;;;;;;20.66;55.21;100971.89;105481;1254;61420;-72
2023/09/03 03:07:04;;;;;;;11.20;7.50;;;;;;;20.66;54.96;100971.05;105218;1260;62455;-70
2023/09/03 03:09:32;;;;;;;15.10;8.00;;;;;;;20.65;54.81;100969.71;105239;1259;59634;-70
2023/09/03 03:12:00;;;;;;;11.40;7.90;;;;;;;20.64;54.54;100967.55;105308;1257;60440;-69
2023/09/03 03:14:30;;;;;;;8.90;6.90;;;;;;;20.63;54.27;100965.53;105820;1254;64068;-68
2023/09/03 03:16:58;;;;;;;12.20;7.70;;;;;;;20.61;54.36;100964.26;105249;1254;61774;-62
2023/09/03 03:19:26;;;;;;;10.80;8.10;;;;;;;20.59;54.47;100961.05;105280;1259;64572;-61
2023/09/03 03:21:53;;;;;;;11.60;8.00;;;;;;;20.57;54.37;100961.98;105220;1258;60272;-54
2023/09/03 03:24:21;;;;;;;10.40;8.10;;;;;;;20.55;54.49;100964.84;105243;1259;59619;-55
2023/09/03 03:26:50;;;;;;;12.80;7.80;;;;;;;20.53;54.42;100968.14;105349;1258;64550;-63
2023/09/03 03:29:19;;;;;;;10.60;8.10;;;;;;;20.55;54.47;100965.79;105403;1257;61467;-64
2023/09/03 03:31:50;;;;;;;11.00;7.70;;;;;;;20.60;54.48;100965.96;105119;1256;63716;-53
2023/09/03 03:34:18;;;;;;;9.80;6.60;;;;;;;20.62;54.50;100966.59;105428;1254;59768;-53
2023/09/03 03:36:47;;;;;;;10.50;7.10;;;;;;;20.62;54.86;100967.83;105416;1260;59735;-55
2023/09/03 03:39:15;;;;;;;10.90;7.80;;;;;;;20.62;55.09;100968.80;105505;1255;64165;-59
2023/09/03 03:41:42;;;;;;;10.80;7.80;;;;;;;20.62;54.98;100969.55;105342;1257;61438;-57
2023/09/03 03:44:13;;;;;;;12.90;7.40;;;;;;;20.61;55.05;100971.18;105229;1257;63755;-59
2023/09/03 03:46:41;;;;;;;11.30;8.10;;;;;;;20.60;54.90;100971.41;105518;1257;59695;-62
2023/09/03 03:49:08;;;;;;;10.90;7.70;;;;;;;20.59;54.88;100970.45;105312;1254;59565;-62
2023/09/03 03:51:37;;;;;;;11.30;7.70;;;;;;;20.60;54.81;100970.08;105484;1257;64109;-59
2023/09/03 03:54:05;;;;;;;9.20;7.40;;;;;;;20.58;54.87;100967.91;105314;1257;61425;-60
2023/09/03 03:56:34;;;;;;;9.20;7.20;;;;;;;20.57;55.11;100965.17;105185;1257;64219;-66
2023/09/03 03:59:02;;;;;;;9.40;7.20;;;;;;;20.58;55.33;100962.89;105080;1259;59702;-61
2023/09/03 04:01:29;;;;;;;9.20;6.70;;;;;;;20.64;55.46;100965.04;105282;1254;60421;-60
2023/09/03 04:03:57;;;;;;;9.00;6.80;;;;;;;20.71;55.44;100967.45;105183;1261;64267;-59
2023/09/03 04:06:27;;;;;;;9.50;7.40;;;;;;;20.75;55.40;100972.30;105586;1257;61607;-58
2023/09/03 04:08:55;;;;;;;9.90;7.30;;;;;;;20.78;55.11;100973.53;105152;1259;62833;-63
2023/09/03 04:11:24;;;;;;;10.40;6.90;;;;;;;20.80;54.91;100972.58;105177;1258;59756;-71
2023/09/03 04:13:53;;;;;;;11.30;7.90;;;;;;;20.83;54.84;100971.93;105248;1254;59592;-72
2023/09/03 04:16:22;;;;;;;10.20;7.00;;;;;;;20.86;54.92;100969.09;105413;1255;64101;-57
2023/09/03 04:18:51;;;;;;;8.70;6.70;;;;;;;20.88;55.13;100966.20;105203;1262;60103;-58
2023/09/03 04:21:19;;;;;;;10.30;6.50;;;;;;;20.89;55.17;100964.23;105141;1257;63640;-58
2023/09/03 04:23:47;;;;;;;8.10;6.10;;;;;;;20.90;54.89;100965.53;105140;1254;59700;-71
2023/09/03 04:26:15;;;;;;;9.10;6.50;;;;;;;20.91;54.52;100963.67;105413;1259;60389;-58
2023/09/03 04:28:48;;;;;;;9.70;5.80;;;;;;;20.92;54.24;100964.79;105271;1256;64122;-71
2023/09/03 04:31:16;;;;;;;10.90;6.00;;;;;;;20.94;53.85;100965.67;105498;1259;60145;-56
2023/09/03 04:33:45;;;;;;;8.90;5.70;;;;;;;20.97;53.74;100966.77;105447;1257;64406;-56
2023/09/03 04:36:13;;;;;;;8.70;6.70;;;;;;;21.01;53.43;100963.36;105462;1257;59883;-57
2023/09/03 04:38:41;;;;;;;9.90;6.50;;;;;;;21.04;53.25;100962.08;105325;1261;60086;-57
2023/09/03 04:41:10;;;;;;;8.80;5.90;;;;;;;21.07;53.31;100965.09;105347;1255;62901;-57
2023/09/03 04:43:46;;;;;;;9.20;6.20;;;;;;;21.10;53.47;100964.20;105751;1258;60417;-57
2023/09/03 04:46:20;;;;;;;9.50;6.30;;;;;;;21.12;53.35;100963.25;105839;1254;62493;-51
2023/09/03 04:48:48;;;;;;;8.10;5.90;;;;;;;21.15;53.37;100963.59;108878;1256;57491;-52
2023/09/03 04:51:15;;;;;;;9.20;6.20;;;;;;;21.18;53.10;100963.77;105496;1254;59816;-61
2023/09/03 04:53:43;;;;;;;9.00;5.70;;;;;;;21.20;52.91;100961.96;105165;1261;64143;-62
2023/09/03 04:56:12;;;;;;;9.70;5.70;;;;;;;21.22;52.91;100959.73;105292;1257;61875;-69
2023/09/03 04:58:42;;;;;;;9.20;5.70;;;;;;;21.26;52.80;100959.17;105346;1258;62526;-58
2023/09/03 05:01:16;;;;;;;9.40;5.80;;;;;;;21.29;52.76;100960.75;105477;1257;59759;-62
2023/09/03 05:03:48;;;;;;;7.80;5.70;;;;;;;21.31;52.52;100957.21;105346;1257;60174;-61
2023/09/03 05:06:18;;;;;;;6.90;5.00;;;;;;;21.34;52.33;100955.45;105349;1260;64161;-59
2023/09/03 05:08:48;;;;;;;6.70;4.90;;;;;;;21.39;52.43;100956.80;105452;1255;61522;-55
2023/09/03 05:11:17;;;;;;;7.20;5.50;;;;;;;21.42;52.30;100955.70;105498;1257;63674;-59
2023/09/03 05:13:47;;;;;;;10.40;6.30;;;;;;;21.45;52.43;100954.77;105378;1262;62163;-59
2023/09/03 05:16:18;;;;;;;11.80;6.30;;;;;;;21.47;52.65;100954.22;105213;1255;59708;-62
2023/09/03 05:18:47;;;;;;;9.00;6.30;;;;;;;21.49;52.26;100951.09;105454;1255;64077;-59
2023/09/03 05:21:14;;;;;;;9.70;6.90;;;;;;;21.51;52.36;100950.83;105260;1260;62944;-64
2023/09/03 05:23:42;;;;;;;8.70;6.20;;;;;;;21.53;52.83;100949.00;105194;1257;63955;-61
2023/09/03 05:26:10;;;;;;;8.80;6.20;;;;;;;21.59;52.75;100953.36;105186;1258;59803;-56
2023/09/03 05:28:40;;;;;;;9.10;5.70;;;;;;;21.65;52.33;100952.81;105530;1257;59560;-57
2023/09/03 05:31:11;;;;;;;7.60;5.40;;;;;;;21.71;52.19;100949.80;105289;1257;62896;-58
2023/09/03 05:33:40;;;;;;;9.30;6.10;;;;;;;21.77;52.14;100949.33;105258;1257;60136;-59
2023/09/03 05:36:11;;;;;;;10.60;5.30;;;;;;;21.81;51.95;100947.54;105246;1262;63685;-55
2023/09/03 05:38:42;;;;;;;8.60;5.70;;;;;;;21.85;51.56;100945.16;105364;1258;59744;-58
2023/09/03 05:41:14;;;;;;;8.90;5.60;;;;;;;21.88;51.59;100945.75;105330;1257;61364;-58
2023/09/03 05:43:45;;;;;;;7.90;5.80;;;;;;;21.92;51.88;100946.74;105416;1260;64825;-58
2023/09/03 05:46:14;;;;;;;7.70;5.70;;;;;;;21.94;51.46;100947.92;105304;1257;63370;-64
2023/09/03 05:48:50;;;;;;;7.40;5.50;;;;;;;21.96;51.45;100948.02;105339;1257;64878;-61
2023/09/03 05:51:18;;;;;;;8.60;5.80;;;;;;;21.98;51.35;100947.83;105272;1258;60690;-60
2023/09/03 05:53:46;;;;;;;8.20;5.20;;;;;;;21.98;51.42;100949.40;105202;1259;60402;-58
2023/09/03 05:56:14;;;;;;;7.10;5.50;;;;;;;21.97;51.24;100953.50;105160;1259;73832;-57
2023/09/03 05:58:45;;;;;;;7.90;5.60;;;;;;;21.95;51.41;100951.94;106004;1254;61341;-56
2023/09/03 06:01:12;;;;;;;8.30;5.80;;;;;;;21.93;51.45;100954.38;105191;1261;62468;-60
2023/09/03 06:03:40;;;;;;;8.10;6.00;;;;;;;21.91;51.49;100955.50;105285;1259;60786;-62
2023/09/03 06:06:10;;;;;;;9.40;5.70;;;;;;;21.89;51.57;100957.06;105127;1262;60364;-62
2023/09/03 06:08:38;;;;;;;8.30;5.70;;;;;;;21.88;51.34;100956.30;105526;1258;64928;-56
2023/09/03 06:11:06;;;;;;;7.10;5.20;;;;;;;21.87;51.65;100955.14;105038;1257;61514;-58
2023/09/03 06:13:33;;;;;;;10.30;5.80;;;;;;;21.87;51.96;100953.27;104987;1260;63790;-58
2023/09/03 06:16:01;;;;;;;8.20;5.30;;;;;;;21.88;52.34;100958.27;105065;1259;63039;-55
2023/09/03 06:18:29;;;;;;;7.90;5.10;;;;;;;21.90;52.49;100961.10;105147;1260;60447;-56
2023/09/03 06:20:56;;;;;;;8.70;5.40;;;;;;;21.91;52.80;100963.72;105305;1257;64970;-59
2023/09/03 06:23:26;;;;;;;9.40;5.60;;;;;;;21.93;52.94;100962.42;105218;1259;61608;-60
2023/09/03 06:25:53;;;;;;;6.80;4.80;;;;;;;21.98;53.08;100961.90;105255;1257;62518;-60
2023/09/03 06:28:21;;;;;;;8.00;5.80;;;;;;;22.07;52.90;100962.14;105092;1259;60558;-62
2023/09/03 06:30:49;;;;;;;8.60;5.90;;;;;;;22.13;52.82;100959.25;106290;1256;60620;-56
2023/09/03 06:33:16;;;;;;;11.00;5.30;;;;;;;22.19;52.79;100955.00;105314;1259;64920;-56
2023/09/03 06:35:44;;;;;;;8.10;5.30;;;;;;;22.24;52.70;100956.14;105176;1259;61532;-58
2023/09/03 06:38:11;;;;;;;11.40;5.60;;;;;;;22.29;52.85;100954.63;105143;1257;62473;-54
2023/09/03 06:40:39;;;;;;;10.10;6.10;;;;;;;22.36;53.03;100953.52;105108;1257;60570;-57
2023/09/03 06:43:08;;;;;;;9.40;6.10;;;;;;;22.40;53.02;100951.68;105341;1254;60603;-55
2023/09/03 06:45:37;;;;;;;8.10;5.60;;;;;;;22.44;53.12;100950.33;105242;1258;65265;-55
2023/09/03 06:48:06;;;;;;;7.50;4.80;;;;;;;22.47;52.92;100952.30;105183;1258;61615;-61
2023/09/03 06:50:34;;;;;;;7.20;4.90;;;;;;;22.49;52.62;100953.69;105703;1257;62474;-56
2023/09/03 06:53:03;;;;;;;7.80;5.60;;;;;;;22.51;52.18;100952.07;105973;1257;60990;-58
2023/09/03 06:55:31;;;;;;;6.80;5.00;;;;;;;22.54;52.25;100950.45;106878;1261;60373;-49
2023/09/03 06:57:58;;;;;;;8.30;5.30;;;;;;;22.57;52.12;100949.66;105460;1260;67485;-50
2023/09/03 07:00:26;;;;;;;7.10;4.90;;;;;;;22.62;51.97;100944.60;105229;1254;61915;-55
2023/09/03 07:02:53;;;;;;;6.70;4.40;;;;;;;22.69;51.53;100941.79;105402;1261;62734;-55
2023/09/03 07:05:21;;;;;;;8.40;5.80;;;;;;;22.76;51.57;100942.54;105404;1259;60457;-55
2023/09/03 07:07:49;;;;;;;6.70;4.40;;;;;;;22.80;51.54;100944.11;105548;1262;60546;-55
2023/09/03 07:10:17;;;;;;;8.10;5.40;;;;;;;22.84;51.46;100943.27;105131;1254;64931;-57
2023/09/03 07:12:44;;;;;;;8.20;4.50;;;;;;;22.87;51.57;100937.95;105502;1257;60417;-55
2023/09/03 07:15:12;;;;;;;8.60;5.00;;;;;;;22.91;51.38;100939.77;105557;1254;75387;-54
2023/09/03 07:17:40;;;;;;;6.90;4.50;;;;;;;22.98;51.33;100941.07;105023;1260;60531;-55
2023/09/03 07:20:11;;;;;;;11.50;4.70;;;;;;;23.05;51.50;100939.53;105103;1260;61325;-58
2023/09/03 07:22:42;;;;;;;7.50;4.80;;;;;;;23.13;51.38;100938.52;104945;1257;64117;-57
2023/09/03 07:25:09;;;;;;;7.90;4.90;;;;;;;23.22;51.19;100933.52;105216;1260;61445;-56
2023/09/03 07:27:40;;;;;;;6.70;4.60;;;;;;;23.29;50.99;100934.91;105339;1260;63778;-57
2023/09/03 07:30:08;;;;;;;7.60;4.50;;;;;;;23.35;50.67;100935.04;105279;1260;60558;-55
2023/09/03 07:32:37;;;;;;;7.70;4.90;;;;;;;23.40;50.25;100934.02;106069;1260;60886;-56
2023/09/03 07:35:06;;;;;;;6.50;4.60;;;;;;;23.45;49.97;100932.31;105169;1254;64907;-57
2023/09/03 07:37:34;;;;;;;8.30;4.50;;;;;;;23.51;49.82;100932.25;105254;1260;60370;-57
2023/09/03 07:40:03;;;;;;;7.00;4.00;;;;;;;23.60;50.06;100933.20;105084;1254;63763;-58
2023/09/03 07:42:31;;;;;;;6.00;3.90;;;;;;;23.68;49.58;100939.34;105343;1257;60465;-54
2023/09/03 07:44:58;;;;;;;6.00;3.60;;;;;;;23.75;49.28;100939.85;105263;1260;60559;-58
2023/09/03 07:47:26;;;;;;;6.40;3.20;;;;;;;23.82;48.76;100941.69;105282;1259;64798;-59
2023/09/03 07:49:53;;;;;;;5.80;3.60;;;;;;;23.88;48.32;100941.41;105314;1258;60635;-59
2023/09/03 07:52:21;;;;;;;6.60;3.60;;;;;;;23.94;48.02;100940.49;105063;1257;63815;-60
2023/09/03 07:54:49;;;;;;;7.40;3.40;;;;;;;23.98;47.78;100946.03;105166;1254;60590;-61
2023/09/03 07:57:16;;;;;;;5.60;3.20;;;;;;;24.02;47.63;100943.23;105849;1259;60459;-63
2023/09/03 07:59:44;;;;;;;6.40;3.50;;;;;;;24.07;47.98;100946.13;105249;1255;63867;-55
2023/09/03 08:02:11;;;;;;;5.90;3.60;;;;;;;24.11;47.79;100942.83;105125;1260;61400;-55
2023/09/03 08:04:41;;;;;;;6.80;3.50;;;;;;;24.12;47.68;100932.95;105086;1257;63750;-58
2023/09/03 08:07:08;;;;;;;5.90;3.50;;;;;;;24.18;48.18;100934.92;108891;1257;60539;-59
2023/09/03 08:09:36;;;;;;;5.70;3.40;;;;;;;24.23;47.70;100932.64;105210;1260;60459;-60
2023/09/03 08:12:04;;;;;;;5.60;3.30;;;;;;;24.29;47.47;100934.15;105132;1257;65057;-69
2023/09/03 08:14:32;;;;;;;6.70;3.50;;;;;;;24.35;47.72;100934.91;105461;1254;61469;-60
2023/09/03 08:17:00;;;;;;;6.80;3.90;;;;;;;24.41;47.49;100933.73;105390;1258;64320;-61
2023/09/03 08:19:27;;;;;;;5.20;3.10;;;;;;;24.46;47.49;100931.90;105897;1257;60690;-59
2023/09/03 08:21:55;;;;;;;5.80;3.50;;;;;;;24.51;47.25;100927.75;105236;1259;60436;-60
2023/09/03 08:24:22;;;;;;;5.80;3.50;;;;;;;24.55;46.61;100925.66;105242;1260;65003;-58
2023/09/03 08:26:50;;;;;;;5.80;3.10;;;;;;;24.59;46.70;100922.75;105162;1260;61326;-58
2023/09/03 08:29:17;;;;;;;5.70;3.20;;;;;;;24.63;46.76;100921.97;105324;1260;63756;-60
2023/09/03 08:31:45;;;;;;;5.90;3.30;;;;;;;24.67;46.57;100924.02;105269;1257;60505;-59
2023/09/03 08:34:14;;;;;;;5.30;2.70;;;;;;;24.72;46.90;100922.16;105318;1259;60340;-57
2023/09/03 08:36:41;;;;;;;5.20;3.00;;;;;;;24.77;46.33;100923.66;105187;1263;64995;-58
2023/09/03 08:39:09;;;;;;;5.70;3.10;;;;;;;24.79;46.23;100920.98;105309;1263;60718;-57
2023/09/03 08:41:38;;;;;;;6.30;3.70;;;;;;;24.80;46.58;100922.55;105241;1257;63765;-59
2023/09/03 08:44:28;;;;;;;6.20;3.30;;;;;;;24.76;46.47;100929.38;105337;1260;60447;-58
2023/09/03 08:46:59;;;;;;;6.00;3.10;;;;;;;24.72;47.00;100937.48;105353;1260;60611;-58
2023/09/03 08:49:29;;;;;;;5.90;2.80;;;;;;;24.69;47.38;100935.15;105466;1260;65877;-59
2023/09/03 08:52:00;;;;;;;6.10;3.40;;;;;;;24.66;47.31;100931.63;105222;1260;61483;-59
2023/09/03 08:54:27;;;;;;;6.90;2.90;;;;;;;24.65;47.16;100933.03;105523;1260;62458;-59
2023/09/03 08:56:55;;;;;;;5.80;3.00;;;;;;;24.65;46.84;100932.33;105294;1263;61662;-58
2023/09/03 08:59:23;;;;;;;4.80;2.90;;;;;;;24.63;45.99;100930.67;105452;1260;60361;-62
2023/09/03 09:01:54;;;;;;;5.00;2.70;;;;;;;24.63;46.09;100932.57;106384;1257;65035;-67
2023/09/03 09:04:22;;;;;;;7.10;3.20;;;;;;;24.65;45.95;100933.23;105151;1260;62737;-59
2023/09/03 09:06:51;;;;;;;5.20;2.90;;;;;;;24.70;45.56;100931.14;105911;1260;62546;-66
2023/09/03 09:09:19;;;;;;;4.80;2.30;;;;;;;24.77;45.12;100931.23;105592;1258;60558;-66
2023/09/03 09:11:55;;;;;;;5.50;3.00;;;;;;;24.81;43.41;100925.13;105400;1257;60612;-56
2023/09/03 09:14:31;;;;;;;5.10;2.70;;;;;;;24.84;42.82;100930.55;105459;1260;67132;-61
2023/09/03 09:16:58;;;;;;;4.30;2.20;;;;;;;24.88;42.86;100934.62;105760;1259;61943;-63
2023/09/03 09:19:26;;;;;;;4.50;2.50;;;;;;;24.92;42.84;100937.37;105774;1257;62462;-56
2023/09/03 09:21:53;;;;;;;4.70;2.40;;;;;;;24.98;42.94;100938.94;105435;1263;60652;-60
2023/09/03 09:24:21;;;;;;;6.40;3.00;;;;;;;25.02;43.11;100938.04;105395;1260;60530;-62
2023/09/03 09:26:50;;;;;;;4.00;1.90;;;;;;;25.07;43.22;100937.96;105889;1257;65071;-60
2023/09/03 09:29:21;;;;;;;4.70;2.50;;;;;;;25.13;42.65;100938.47;105446;1257;62273;-60
2023/09/03 09:31:50;;;;;;;4.10;2.30;;;;;;;25.20;42.48;100936.77;105368;1259;63769;-59
2023/09/03 09:34:20;;;;;;;5.20;2.60;;;;;;;25.27;42.36;100934.45;105479;1257;60594;-60
2023/09/03 09:36:55;;;;;;;5.40;2.60;;;;;;;25.34;42.06;100934.03;105615;1258;60357;-62
2023/09/03 09:39:22;;;;;;;5.40;2.70;;;;;;;25.42;42.22;100927.58;105538;1257;65065;-62
2023/09/03 09:42:07;;;;;;;5.00;2.70;;;;;;;25.50;42.34;100929.96;109209;1256;71228;-62
2023/09/03 09:44:34;;;;;;;5.00;2.50;;;;;;;25.56;42.80;100926.14;106654;1255;62500;-61
2023/09/03 09:47:14;;;;;;;4.70;2.70;;;;;;;25.64;42.40;100919.95;105432;1257;60562;-60
2023/09/03 09:49:45;;;;;;;5.40;2.90;;;;;;;25.71;42.46;100920.15;106318;1254;60334;-61
2023/09/03 09:52:17;;;;;;;6.80;3.10;;;;;;;25.78;42.61;100919.64;106238;1254;64922;-62
2023/09/03 09:54:46;;;;;;;6.60;3.50;;;;;;;25.83;42.83;100919.17;106164;1257;60410;-60
2023/09/03 09:57:20;;;;;;;6.20;3.20;;;;;;;25.87;43.52;100917.73;106050;1257;63728;-61
2023/09/03 09:59:52;;;;;;;7.00;3.90;;;;;;;25.91;43.33;100917.84;105487;1257;60514;-61
2023/09/03 10:02:20;;;;;;;6.40;3.80;;;;;;;25.96;43.16;100915.61;105668;1257;60392;-58
2023/09/03 10:04:50;;;;;;;6.40;4.20;;;;;;;25.99;42.89;100917.27;106885;1254;64913;-60
2023/09/03 10:07:17;;;;;;;6.20;3.90;;;;;;;26.03;42.61;100917.71;105480;1257;61602;-61
2023/09/03 10:09:45;;;;;;;8.30;4.10;;;;;;;26.02;42.56;100920.37;105436;1255;64259;-61
2023/09/03 10:12:13;;;;;;;7.30;4.50;;;;;;;26.01;42.76;100915.73;106969;1255;60527;-60
2023/09/03 10:14:41;;;;;;;6.80;3.60;;;;;;;26.07;43.18;100911.40;105568;1256;60388;-59
2023/09/03 10:17:09;;;;;;;5.60;3.40;;;;;;;26.15;43.60;100907.17;105386;1260;64924;-58
2023/09/03 10:19:39;;;;;;;6.20;3.40;;;;;;;26.21;42.87;100906.86;105803;1257;63178;-59
2023/09/03 10:22:09;;;;;;;6.60;3.60;;;;;;;26.27;42.41;100909.02;105756;1253;63744;-58
2023/09/03 10:24:36;;;;;;;5.60;3.20;;;;;;;26.32;42.09;100908.42;105551;1260;60447;-58
2023/09/03 10:27:04;;;;;;;5.70;3.50;;;;;;;26.39;42.31;100908.90;105493;1255;59650;-58
2023/09/03 10:29:33;;;;;;;7.70;3.30;;;;;;;26.46;42.62;100908.11;105488;1254;64960;-60
2023/09/03 10:32:01;;;;;;;10.60;4.00;;;;;;;26.52;42.94;100903.52;105439;1255;61646;-56
2023/09/03 10:34:30;;;;;;;5.50;3.50;;;;;;;26.59;42.83;100899.87;105534;1257;63712;-55
2023/09/03 10:37:16;;;;;;;6.10;4.10;;;;;;;26.63;42.99;100902.70;105386;1258;60532;-54
2023/09/03 10:39:45;;;;;;;;;;;;;;;26.67;42.87;100901.27;105442;1257;60386;-56
2023/09/03 10:42:16;;;;;;;6.40;3.10;;;;;;;26.70;41.93;100898.34;105767;1254;63653;-53
2023/09/03 10:44:49;;;;;;;5.80;2.90;;;;;;;26.73;40.84;100896.12;104971;1264;61360;-54
2023/09/03 10:47:19;;;;;;;5.20;2.60;;;;;;;26.75;39.48;100896.10;105575;1260;62437;-55
2023/09/03 10:49:48;;;;;;;4.10;2.20;;;;;;;26.76;39.06;100896.30;105132;1255;60673;-55
2023/09/03 10:52:28;;;;;;;4.40;2.30;;;;;;;26.78;38.89;100893.67;104928;1255;60584;-60
2023/09/03 10:55:12;;;;;;;5.50;2.60;;;;;;;26.83;39.00;100898.14;104998;1260;64919;-57
2023/09/03 10:57:39;;;;;;;6.50;2.70;;;;;;;26.87;39.35;100898.82;104894;1258;60456;-54
2023/09/03 11:00:23;;;;;;;5.20;2.80;;;;;;;26.88;39.29;100896.64;106117;1257;63728;-56
2023/09/03 11:02:52;;;;;;;5.50;2.90;;;;;;;26.89;39.27;100895.56;106222;1253;60532;-54
2023/09/03 11:05:31;;;;;;;6.10;2.90;;;;;;;26.91;39.12;100890.48;105374;1257;60472;-54
2023/09/03 11:08:31;;;;;;;5.20;3.00;;;;;;;26.97;39.26;100891.31;105332;1253;64967;-54
2023/09/03 11:10:59;;;;;;;7.20;3.00;;;;;;;27.02;39.24;100891.43;105304;1257;62418;-55
2023/09/03 11:13:27;;;;;;;5.60;2.70;;;;;;;27.08;38.64;100885.15;105894;1254;62454;-54
2023/09/03 11:16:05;;;;;;;4.70;2.80;;;;;;;27.16;38.59;100879.93;105210;1255;60536;-57
2023/09/03 11:18:33;;;;;;;5.80;3.00;;;;;;;27.27;38.39;100876.58;105336;1257;60683;-56
2023/09/03 11:21:01;;;;;;;6.00;2.80;;;;;;;27.40;38.07;100866.95;105274;1254;64940;-56
2023/09/03 11:23:29;;;;;;;6.40;2.90;;;;;;;27.51;38.17;100865.34;105291;1257;60983;-62
2023/09/03 11:26:03;;;;;;;5.60;2.80;;;;;;;27.58;38.11;100868.98;105245;1253;64925;-56